createdAt,value
2023-01-15T00:01:43.649Z,88.54
2023-01-15T00:04:12.142Z,88.41
2023-01-15T00:06:41.419Z,88.33
2023-01-15T00:09:09.213Z,88.60
2023-01-15T00:11:35.876Z,88.46
2023-01-15T00:14:02.581Z,88.32
2023-01-15T00:16:30.468Z,88.31
2023-01-15T00:19:01.986Z,87.77
2023-01-15T00:21:29.324Z,87.79
2023-01-15T00:24:14.820Z,88.39
2023-01-15T00:27:01.858Z,88.21
2023-01-15T00:29:28.848Z,88.14
2023-01-15T00:32:07.281Z,87.94
2023-01-15T00:34:35.190Z,88.34
2023-01-15T00:37:02.296Z,88.31
2023-01-15T00:39:29.261Z,87.82
2023-01-15T00:41:56.767Z,87.79
2023-01-15T00:44:23.579Z,87.58
2023-01-15T00:46:50.350Z,87.92
2023-01-15T00:49:17.363Z,87.65
2023-01-15T00:51:44.098Z,87.59
2023-01-15T00:54:11.213Z,87.94
2023-01-15T00:56:37.924Z,87.51
2023-01-15T00:59:05.347Z,88.05
2023-01-15T01:01:32.514Z,88.19
2023-01-15T01:03:59.344Z,87.99
2023-01-15T01:06:26.201Z,87.71
2023-01-15T01:08:52.919Z,87.55
2023-01-15T01:11:23.921Z,87.82
2023-01-15T01:13:50.831Z,88.02
2023-01-15T01:16:32.122Z,88.12
2023-01-15T01:19:00.163Z,87.69
2023-01-15T01:21:27.732Z,88.05
2023-01-15T01:23:55.048Z,88.00
2023-01-15T01:26:21.830Z,87.62
2023-01-15T01:28:50.309Z,87.47
2023-01-15T01:31:17.874Z,87.68
2023-01-15T01:33:44.815Z,88.20
2023-01-15T01:36:11.639Z,87.53
2023-01-15T01:38:38.348Z,87.92
2023-01-15T01:41:05.240Z,88.24
2023-01-15T01:43:31.979Z,87.98
2023-01-15T01:45:58.747Z,88.08
2023-01-15T01:48:30.915Z,87.91
2023-01-15T01:51:01.838Z,87.35
2023-01-15T01:53:31.441Z,87.54
2023-01-15T01:55:59.393Z,88.15
2023-01-15T01:58:31.145Z,87.54
2023-01-15T02:00:59.042Z,88.02
2023-01-15T02:03:31.681Z,87.97
2023-01-15T02:06:01.380Z,87.91
2023-01-15T02:08:28.257Z,88.00
2023-01-15T02:10:56.711Z,87.65
2023-01-15T02:13:26.608Z,87.60
2023-01-15T02:16:21.578Z,87.45
2023-01-15T02:18:54.000Z,87.70
2023-01-15T02:21:27.474Z,87.91
2023-01-15T02:24:09.385Z,87.54
2023-01-15T02:26:58.505Z,87.70
2023-01-15T02:29:52.010Z,87.79
2023-01-15T02:32:37.237Z,87.51
2023-01-15T02:35:13.063Z,87.50
2023-01-15T02:37:45.206Z,87.67
2023-01-15T02:40:13.579Z,87.60
2023-01-15T02:42:42.749Z,87.66
2023-01-15T02:45:13.145Z,87.90
2023-01-15T02:47:43.357Z,87.96
2023-01-15T02:50:14.100Z,87.70
2023-01-15T02:52:49.631Z,87.84
2023-01-15T02:55:24.703Z,88.10
2023-01-15T02:57:54.429Z,87.92
2023-01-15T03:00:23.697Z,87.65
2023-01-15T03:02:58.734Z,88.05
2023-01-15T03:05:32.377Z,87.87
2023-01-15T03:08:02.488Z,87.86
2023-01-15T03:10:50.476Z,87.80
2023-01-15T03:13:34.580Z,88.06
2023-01-15T03:16:33.520Z,87.90
2023-01-15T03:19:15.562Z,87.79
2023-01-15T03:21:54.307Z,87.73
2023-01-15T03:24:43.849Z,88.00
2023-01-15T03:27:11.128Z,87.84
2023-01-15T03:29:43.701Z,87.83
2023-01-15T03:32:10.977Z,88.14
2023-01-15T03:34:46.634Z,87.96
2023-01-15T03:37:14.130Z,88.24
2023-01-15T03:39:42.635Z,88.11
2023-01-15T03:42:24.095Z,87.95
2023-01-15T03:45:03.126Z,88.18
2023-01-15T03:47:29.712Z,88.02
2023-01-15T03:50:02.106Z,88.15
2023-01-15T03:52:31.783Z,87.94
2023-01-15T03:55:24.950Z,88.25
2023-01-15T03:57:59.330Z,88.12
2023-01-15T04:00:30.397Z,88.16
2023-01-15T04:02:58.619Z,87.84
2023-01-15T04:05:26.876Z,88.21
2023-01-15T04:07:55.250Z,88.03
2023-01-15T04:10:21.957Z,87.74
2023-01-15T04:12:49.463Z,88.29
2023-01-15T04:15:16.892Z,88.15
2023-01-15T04:17:43.692Z,88.29
2023-01-15T04:20:11.528Z,88.27
2023-01-15T04:22:38.598Z,88.27
2023-01-15T04:25:06.639Z,88.37
2023-01-15T04:27:33.428Z,88.57
2023-01-15T04:30:00.386Z,88.71
2023-01-15T04:32:27.607Z,88.57
2023-01-15T04:34:54.339Z,88.41
2023-01-15T04:37:21.020Z,88.46
2023-01-15T04:39:47.809Z,88.50
2023-01-15T04:42:33.404Z,88.42
2023-01-15T04:45:00.113Z,88.57
2023-01-15T04:47:26.813Z,88.51
2023-01-15T04:49:53.489Z,88.71
2023-01-15T04:52:20.161Z,88.71
2023-01-15T04:54:46.792Z,88.74
2023-01-15T04:57:13.491Z,88.75
2023-01-15T04:59:40.124Z,88.63
2023-01-15T05:02:07.200Z,88.69
2023-01-15T05:04:34.792Z,88.94
2023-01-15T05:07:02.932Z,88.83
2023-01-15T05:09:29.598Z,89.11
2023-01-15T05:11:56.259Z,88.95
2023-01-15T05:14:22.975Z,89.05
2023-01-15T05:16:49.672Z,89.13
2023-01-15T05:19:16.411Z,89.47
2023-01-15T05:21:45.057Z,89.43
2023-01-15T05:24:16.795Z,89.28
2023-01-15T05:26:44.681Z,89.37
2023-01-15T05:29:13.802Z,89.70
2023-01-15T05:31:42.769Z,89.06
2023-01-15T05:34:10.336Z,89.54
2023-01-15T05:36:37.748Z,89.32
2023-01-15T05:39:05.217Z,89.32
2023-01-15T05:41:50.760Z,89.12
2023-01-15T05:44:23.957Z,89.16
2023-01-15T05:46:52.833Z,89.25
2023-01-15T05:49:21.872Z,89.19
2023-01-15T05:51:49.241Z,89.60
2023-01-15T05:54:20.382Z,89.33
2023-01-15T05:56:48.681Z,89.75
2023-01-15T05:59:17.679Z,89.50
2023-01-15T06:01:44.483Z,89.17
2023-01-15T06:04:14.329Z,89.04
2023-01-15T06:06:42.663Z,89.72
2023-01-15T06:09:09.693Z,89.48
2023-01-15T06:11:36.408Z,89.71
2023-01-15T06:14:03.081Z,89.49
2023-01-15T06:16:29.746Z,89.74
2023-01-15T06:19:01.025Z,89.75
2023-01-15T06:21:27.757Z,89.44
2023-01-15T06:23:54.630Z,89.28
2023-01-15T06:26:21.321Z,89.75
2023-01-15T06:28:48.054Z,89.99
2023-01-15T06:31:18.674Z,89.37
2023-01-15T06:33:45.673Z,89.47
2023-01-15T06:36:18.140Z,89.94
2023-01-15T06:38:45.227Z,89.71
2023-01-15T06:41:44.906Z,89.49
2023-01-15T06:44:35.757Z,89.33
2023-01-15T06:47:21.932Z,89.89
2023-01-15T06:50:00.021Z,89.21
2023-01-15T06:52:28.596Z,89.17
2023-01-15T06:54:55.539Z,89.29
2023-01-15T06:57:22.773Z,89.17
2023-01-15T06:59:50.746Z,89.51
2023-01-15T07:02:18.563Z,89.78
2023-01-15T07:04:46.407Z,89.77
2023-01-15T07:07:13.117Z,89.44
2023-01-15T07:09:39.793Z,89.06
2023-01-15T07:12:09.255Z,89.30
2023-01-15T07:14:36.927Z,88.99
2023-01-15T07:17:03.930Z,89.39
2023-01-15T07:19:39.281Z,89.18
2023-01-15T07:22:14.194Z,89.15
2023-01-15T07:24:40.953Z,89.04
2023-01-15T07:27:07.883Z,89.02
2023-01-15T07:29:34.782Z,89.01
2023-01-15T07:32:01.527Z,89.49
2023-01-15T07:34:28.187Z,89.14
2023-01-15T07:36:54.838Z,88.82
2023-01-15T07:39:21.649Z,89.35
2023-01-15T07:42:11.575Z,88.71
2023-01-15T07:44:56.732Z,88.70
2023-01-15T07:47:44.664Z,89.05
2023-01-15T07:50:17.322Z,88.70
2023-01-15T07:52:44.051Z,88.88
2023-01-15T07:55:12.891Z,88.93
2023-01-15T07:57:44.059Z,88.56
2023-01-15T08:00:14.925Z,88.98
2023-01-15T08:02:49.825Z,88.71
2023-01-15T08:05:19.511Z,88.48
2023-01-15T08:07:49.129Z,88.45
2023-01-15T08:10:25.505Z,88.25
2023-01-15T08:13:13.997Z,88.49
2023-01-15T08:15:44.193Z,88.43
2023-01-15T08:18:13.567Z,88.22
2023-01-15T08:20:47.119Z,88.20
2023-01-15T08:23:13.967Z,88.08
2023-01-15T08:25:40.627Z,88.08
2023-01-15T08:28:07.591Z,88.27
2023-01-15T08:30:34.309Z,88.14
2023-01-15T08:33:11.524Z,88.25
2023-01-15T08:35:38.171Z,88.41
2023-01-15T08:38:06.691Z,88.29
2023-01-15T08:40:36.305Z,88.52
2023-01-15T08:43:03.049Z,88.23
2023-01-15T08:45:29.691Z,88.34
2023-01-15T08:48:00.445Z,88.44
2023-01-15T08:50:27.197Z,88.21
2023-01-15T08:52:53.877Z,88.38
2023-01-15T08:55:20.584Z,88.38
2023-01-15T08:57:47.231Z,88.12
2023-01-15T09:00:15.333Z,87.97
2023-01-15T09:02:43.347Z,88.26
2023-01-15T09:05:10.078Z,88.18
2023-01-15T09:07:37.353Z,88.05
2023-01-15T09:10:04.608Z,87.87
2023-01-15T09:12:31.422Z,88.28
2023-01-15T09:15:01.087Z,87.88
2023-01-15T09:17:29.728Z,88.12
2023-01-15T09:19:56.471Z,88.13
2023-01-15T09:22:23.151Z,88.02
2023-01-15T09:24:50.838Z,88.01
2023-01-15T09:27:17.596Z,88.02
2023-01-15T09:29:44.286Z,87.91
2023-01-15T09:32:11.010Z,88.04
2023-01-15T09:34:37.735Z,87.94
2023-01-15T09:37:04.522Z,88.20
2023-01-15T09:39:31.857Z,87.78
2023-01-15T09:42:22.533Z,87.80
2023-01-15T09:45:02.673Z,87.80
2023-01-15T09:47:54.735Z,87.73
2023-01-15T09:50:40.150Z,87.93
2023-01-15T09:53:31.558Z,87.88
2023-01-15T09:56:00.641Z,87.89
2023-01-15T09:58:40.456Z,88.06
2023-01-15T10:01:16.730Z,87.82
2023-01-15T10:03:49.544Z,87.57
2023-01-15T10:06:20.523Z,87.96
2023-01-15T10:08:49.140Z,87.63
2023-01-15T10:11:15.763Z,87.88
2023-01-15T10:13:55.058Z,87.74
2023-01-15T10:16:27.427Z,87.45
2023-01-15T10:18:55.990Z,87.76
2023-01-15T10:21:51.875Z,87.52
2023-01-15T10:24:28.983Z,87.69
2023-01-15T10:26:57.552Z,87.71
2023-01-15T10:29:41.709Z,87.55
2023-01-15T10:32:14.048Z,87.52
2023-01-15T10:35:12.740Z,87.55
2023-01-15T10:37:48.409Z,87.91
2023-01-15T10:41:00.422Z,87.38
2023-01-15T10:44:04.549Z,87.90
2023-01-15T10:46:38.360Z,87.25
2023-01-15T10:49:16.863Z,86.99
2023-01-15T10:52:03.243Z,86.93
2023-01-15T10:54:41.140Z,86.71
2023-01-15T10:57:15.459Z,86.39
2023-01-15T10:59:57.381Z,87.17
2023-01-15T11:02:28.245Z,86.51
2023-01-15T11:04:55.416Z,86.43
2023-01-15T11:07:37.105Z,86.73
2023-01-15T11:10:08.615Z,86.81
2023-01-15T11:12:54.278Z,86.48
2023-01-15T11:15:44.460Z,86.66
2023-01-15T11:18:42.301Z,86.46
2023-01-15T11:21:15.374Z,86.10
2023-01-15T11:23:42.534Z,86.08
2023-01-15T11:26:10.409Z,86.20
2023-01-15T11:28:43.414Z,85.86
2023-01-15T11:31:15.155Z,86.27
2023-01-15T11:34:00.963Z,86.01
2023-01-15T11:36:29.373Z,85.59
2023-01-15T11:38:56.782Z,85.37
2023-01-15T11:41:53.550Z,85.76
2023-01-15T11:44:40.829Z,85.69
2023-01-15T11:47:36.116Z,85.71
2023-01-15T11:50:21.983Z,85.55
2023-01-15T11:52:53.243Z,85.27
2023-01-15T11:55:24.043Z,85.26
2023-01-15T11:57:51.890Z,85.68
2023-01-15T12:00:32.641Z,85.54
2023-01-15T12:03:30.768Z,85.13
2023-01-15T12:06:05.707Z,85.24
2023-01-15T12:08:56.838Z,85.53
2023-01-15T12:11:40.404Z,85.06
2023-01-15T12:14:09.918Z,84.66
2023-01-15T12:16:40.714Z,84.63
2023-01-15T12:19:26.826Z,84.65
2023-01-15T12:22:22.900Z,84.77
2023-01-15T12:25:07.715Z,84.30
2023-01-15T12:27:55.513Z,84.36
2023-01-15T12:30:27.350Z,84.58
2023-01-15T12:33:19.320Z,84.99
2023-01-15T12:35:56.900Z,84.29
2023-01-15T12:38:37.057Z,84.89
2023-01-15T12:41:48.073Z,84.47
2023-01-15T12:44:38.579Z,84.22
2023-01-15T12:47:10.627Z,84.37
2023-01-15T12:49:45.080Z,84.19
2023-01-15T12:52:16.203Z,83.65
2023-01-15T12:54:54.793Z,83.57
2023-01-15T12:57:35.626Z,83.63
2023-01-15T13:00:23.521Z,84.27
2023-01-15T13:02:58.946Z,84.30
2023-01-15T13:05:54.861Z,83.78
2023-01-15T13:08:33.269Z,83.86
2023-01-15T13:11:00.137Z,83.29
2023-01-15T13:13:33.364Z,83.61
2023-01-15T13:15:59.997Z,83.97
2023-01-15T13:18:37.477Z,83.57
2023-01-15T13:21:25.937Z,83.09
2023-01-15T13:23:52.569Z,82.89
2023-01-15T13:26:38.278Z,82.85
2023-01-15T13:29:13.818Z,82.75
2023-01-15T13:31:55.471Z,83.31
2023-01-15T13:34:22.068Z,83.32
2023-01-15T13:36:51.296Z,82.42
2023-01-15T13:39:25.144Z,82.59
2023-01-15T13:42:12.216Z,82.60
2023-01-15T13:44:49.501Z,82.78
2023-01-15T13:47:25.711Z,82.89
2023-01-15T13:49:59.684Z,83.05
2023-01-15T13:52:32.990Z,82.61
2023-01-15T13:55:12.061Z,82.94
2023-01-15T13:57:41.124Z,82.77
2023-01-15T14:00:33.900Z,82.89
2023-01-15T14:03:03.765Z,83.12
2023-01-15T14:05:33.530Z,83.14
2023-01-15T14:08:02.309Z,82.71
2023-01-15T14:10:32.033Z,82.75
2023-01-15T14:13:01.475Z,82.57
2023-01-15T14:15:53.066Z,83.13
2023-01-15T14:18:40.799Z,82.43
2023-01-15T14:21:25.462Z,82.66
2023-01-15T14:23:58.172Z,83.11
2023-01-15T14:27:03.030Z,82.46
2023-01-15T14:30:00.626Z,83.18
2023-01-15T14:32:44.827Z,83.06
2023-01-15T14:35:19.730Z,82.86
2023-01-15T14:37:56.603Z,82.74
2023-01-15T14:40:34.594Z,82.64
2023-01-15T14:43:17.739Z,82.39
2023-01-15T14:45:50.152Z,81.96
2023-01-15T14:48:29.003Z,82.05
2023-01-15T14:51:09.620Z,82.26
2023-01-15T14:53:45.143Z,82.28
2023-01-15T14:56:35.058Z,82.42
2023-01-15T14:59:16.676Z,82.22
2023-01-15T15:01:50.551Z,82.28
2023-01-15T15:04:23.499Z,82.74
2023-01-15T15:06:54.579Z,82.26
2023-01-15T15:09:33.369Z,82.48
2023-01-15T15:12:22.256Z,82.62
2023-01-15T15:15:16.995Z,82.77
2023-01-15T15:18:06.008Z,82.57
2023-01-15T15:20:55.394Z,82.75
2023-01-15T15:23:56.607Z,82.82
2023-01-15T15:26:32.148Z,82.52
2023-01-15T15:29:01.138Z,83.12
2023-01-15T15:31:31.286Z,82.86
2023-01-15T15:33:59.071Z,82.59
2023-01-15T15:36:30.365Z,82.71
2023-01-15T15:39:01.532Z,82.70
2023-01-15T15:41:53.734Z,82.72
2023-01-15T15:45:17.477Z,82.89
2023-01-15T15:48:02.932Z,82.67
2023-01-15T15:50:32.157Z,82.50
2023-01-15T15:53:00.208Z,82.94
2023-01-15T15:55:38.208Z,82.90
2023-01-15T15:58:06.776Z,82.92
2023-01-15T16:00:38.888Z,83.20
2023-01-15T16:03:19.588Z,82.77
2023-01-15T16:05:59.819Z,83.04
2023-01-15T16:08:28.128Z,82.90
2023-01-15T16:10:58.181Z,83.15
2023-01-15T16:13:30.264Z,82.84
2023-01-15T16:16:01.285Z,82.72
2023-01-15T16:19:01.863Z,82.62
2023-01-15T16:21:41.653Z,83.07
2023-01-15T16:24:21.477Z,83.02
2023-01-15T16:26:54.565Z,82.84
2023-01-15T16:29:33.604Z,82.76
2023-01-15T16:32:00.925Z,82.76
2023-01-15T16:34:33.417Z,82.70
2023-01-15T16:37:02.001Z,82.89
2023-01-15T16:39:34.790Z,82.67
2023-01-15T16:42:02.433Z,82.43
2023-01-15T16:44:42.908Z,82.48
2023-01-15T16:47:22.765Z,82.82
2023-01-15T16:49:49.474Z,82.68
2023-01-15T16:52:41.889Z,82.24
2023-01-15T16:55:34.079Z,82.63
2023-01-15T16:58:13.114Z,82.53
2023-01-15T17:00:43.446Z,82.34
2023-01-15T17:03:25.075Z,82.51
2023-01-15T17:06:03.727Z,82.39
2023-01-15T17:08:39.439Z,82.46
2023-01-15T17:11:22.062Z,82.63
2023-01-15T17:13:48.843Z,82.22
2023-01-15T17:16:22.044Z,82.75
2023-01-15T17:18:51.334Z,82.48
2023-01-15T17:21:23.522Z,82.84
2023-01-15T17:23:50.694Z,82.61
2023-01-15T17:26:20.695Z,82.98
2023-01-15T17:28:48.310Z,82.87
2023-01-15T17:31:34.361Z,82.61
2023-01-15T17:34:03.000Z,82.79
2023-01-15T17:36:30.676Z,82.83
2023-01-15T17:38:57.419Z,82.44
2023-01-15T17:41:24.504Z,82.71
2023-01-15T17:43:51.553Z,82.79
2023-01-15T17:46:18.498Z,82.40
2023-01-15T17:48:45.385Z,82.27
2023-01-15T17:51:15.122Z,82.22
2023-01-15T17:53:41.981Z,81.99
2023-01-15T17:56:37.964Z,82.05
2023-01-15T17:59:23.259Z,82.00
2023-01-15T18:02:08.565Z,81.94
2023-01-15T18:05:14.241Z,82.11
2023-01-15T18:07:43.400Z,82.16
2023-01-15T18:10:19.073Z,81.97
2023-01-15T18:12:45.921Z,81.79
2023-01-15T18:15:12.912Z,82.04
2023-01-15T18:17:39.657Z,81.86
2023-01-15T18:20:06.881Z,81.77
2023-01-15T18:22:33.681Z,82.06
2023-01-15T18:25:00.379Z,81.67
2023-01-15T18:27:30.217Z,81.51
2023-01-15T18:29:58.786Z,81.60
2023-01-15T18:32:30.572Z,81.75
2023-01-15T18:34:57.280Z,81.67
2023-01-15T18:37:24.037Z,81.83
2023-01-15T18:39:50.770Z,81.30
2023-01-15T18:42:17.424Z,81.91
2023-01-15T18:45:02.895Z,81.28
2023-01-15T18:47:29.577Z,81.68
2023-01-15T18:49:56.855Z,81.65
2023-01-15T18:52:41.899Z,81.53
2023-01-15T18:55:09.539Z,81.54
2023-01-15T18:57:36.269Z,81.15
2023-01-15T19:00:04.165Z,81.34
2023-01-15T19:02:30.945Z,81.15
2023-01-15T19:04:57.824Z,81.10
2023-01-15T19:07:24.489Z,81.34
2023-01-15T19:09:51.214Z,81.29
2023-01-15T19:12:19.825Z,81.16
2023-01-15T19:15:05.148Z,81.35
2023-01-15T19:17:50.599Z,80.87
2023-01-15T19:20:19.180Z,80.96
2023-01-15T19:23:06.503Z,81.07
2023-01-15T19:25:36.970Z,80.72
2023-01-15T19:28:04.298Z,80.77
2023-01-15T19:30:32.506Z,80.58
2023-01-15T19:32:59.259Z,80.86
2023-01-15T19:35:25.945Z,80.31
2023-01-15T19:37:55.114Z,80.51
2023-01-15T19:40:26.709Z,80.05
2023-01-15T19:43:14.381Z,79.87
2023-01-15T19:46:02.343Z,79.56
2023-01-15T19:48:47.657Z,79.70
2023-01-15T19:51:14.352Z,79.80
2023-01-15T19:53:41.111Z,79.82
2023-01-15T19:56:08.270Z,79.31
2023-01-15T19:58:35.247Z,79.41
2023-01-15T20:01:02.457Z,79.31
2023-01-15T20:03:30.010Z,79.39
2023-01-15T20:05:56.985Z,79.49
2023-01-15T20:08:23.780Z,79.13
2023-01-15T20:10:51.355Z,79.64
2023-01-15T20:13:39.437Z,79.37
2023-01-15T20:16:11.584Z,79.96
2023-01-15T20:18:38.804Z,79.71
2023-01-15T20:21:05.973Z,79.77
2023-01-15T20:23:33.260Z,79.97
2023-01-15T20:26:05.937Z,80.45
2023-01-15T20:28:33.591Z,80.42
2023-01-15T20:31:00.364Z,80.71
2023-01-15T20:33:27.451Z,80.89
2023-01-15T20:35:54.742Z,80.88
2023-01-15T20:38:24.058Z,81.16
2023-01-15T20:40:52.197Z,81.06
2023-01-15T20:43:38.348Z,81.48
2023-01-15T20:46:15.643Z,81.22
2023-01-15T20:49:01.127Z,81.69
2023-01-15T20:51:27.785Z,81.50
2023-01-15T20:53:54.601Z,81.85
2023-01-15T20:56:21.270Z,81.90
2023-01-15T20:58:48.092Z,82.01
2023-01-15T21:01:14.908Z,82.13
2023-01-15T21:03:41.672Z,82.23
2023-01-15T21:06:09.254Z,82.24
2023-01-15T21:08:36.126Z,82.24
2023-01-15T21:11:03.556Z,82.42
2023-01-15T21:13:31.198Z,82.54
2023-01-15T21:16:03.602Z,82.81
2023-01-15T21:18:32.324Z,82.94
2023-01-15T21:20:59.068Z,82.44
2023-01-15T21:23:25.895Z,83.11
2023-01-15T21:25:59.571Z,82.81
2023-01-15T21:28:26.369Z,83.01
2023-01-15T21:30:53.160Z,82.99
2023-01-15T21:33:19.893Z,83.27
2023-01-15T21:35:46.583Z,83.42
2023-01-15T21:38:13.307Z,83.38
2023-01-15T21:40:40.343Z,83.30
2023-01-15T21:43:25.594Z,83.30
2023-01-15T21:45:52.412Z,83.35
2023-01-15T21:48:19.212Z,83.67
2023-01-15T21:50:45.880Z,83.49
2023-01-15T21:53:12.727Z,83.56
2023-01-15T21:55:39.488Z,83.18
2023-01-15T21:58:06.149Z,83.33
2023-01-15T22:00:32.824Z,83.32
2023-01-15T22:02:59.681Z,83.20
2023-01-15T22:05:26.409Z,83.41
2023-01-15T22:07:53.293Z,83.66
2023-01-15T22:10:20.031Z,83.70
2023-01-15T22:12:46.768Z,83.53
2023-01-15T22:15:15.744Z,83.77
2023-01-15T22:17:42.837Z,83.70
2023-01-15T22:20:10.265Z,83.93
2023-01-15T22:22:39.309Z,83.90
2023-01-15T22:25:08.524Z,83.94
2023-01-15T22:27:40.655Z,83.78
2023-01-15T22:30:11.773Z,84.11
2023-01-15T22:32:38.544Z,84.15
2023-01-15T22:35:06.229Z,84.13
2023-01-15T22:37:33.273Z,84.00
2023-01-15T22:39:59.986Z,83.92
2023-01-15T22:42:31.355Z,84.32
2023-01-15T22:44:59.866Z,84.13
2023-01-15T22:47:28.275Z,84.42
2023-01-15T22:49:55.016Z,83.96
2023-01-15T22:52:25.166Z,84.31
2023-01-15T22:54:52.103Z,84.45
2023-01-15T22:57:18.864Z,84.64
2023-01-15T22:59:45.718Z,84.51
2023-01-15T23:02:12.885Z,84.49
2023-01-15T23:04:39.790Z,84.71
2023-01-15T23:07:06.602Z,84.57
2023-01-15T23:09:33.599Z,84.56
2023-01-15T23:12:00.266Z,84.46
2023-01-15T23:14:27.417Z,84.59
2023-01-15T23:16:54.120Z,84.84
2023-01-15T23:19:20.917Z,84.89
2023-01-15T23:21:47.640Z,84.98
2023-01-15T23:24:14.288Z,84.60
2023-01-15T23:26:41.167Z,85.03
2023-01-15T23:29:07.977Z,85.02
2023-01-15T23:31:35.035Z,84.58
2023-01-15T23:34:01.782Z,84.81
2023-01-15T23:36:28.512Z,84.82
2023-01-15T23:38:55.577Z,84.80
2023-01-15T23:41:43.420Z,84.76
2023-01-15T23:44:34.490Z,84.88
2023-01-15T23:47:01.268Z,84.96
2023-01-15T23:49:27.958Z,84.83
2023-01-15T23:51:54.897Z,84.58
2023-01-15T23:54:22.271Z,84.66
2023-01-15T23:56:49.339Z,85.13
2023-01-15T23:59:16.101Z,85.09
